Time;durP1;ratioP1;P1;durP2;ratioP2;P2;SDS_P1;SDS_P2;PMS_P1;PMS_P2;Temp;Humidity;BMP_temperature;BMP_pressure;BME280_temperature;BME280_humidity;BME280_pressure;Samples;Min_cycle;Max_cycle;Signal;HPM_P1;HPM_P2
2022/07/03 20:56:47;;;;;;;;;;;25.60;56.40;;;;;;5039540;28;19931;-75
2022/07/03 20:59:13;;;;;;;;;;;25.40;56.90;;;;;;5016557;28;19925;-75
2022/07/03 21:01:39;;;;;;;;;;;25.50;56.30;;;;;;5033694;28;19921;-75
2022/07/03 21:04:05;;;;;;;;;;;25.70;55.50;;;;;;5017237;28;19913;-75
2022/07/03 21:06:32;;;;;;;;;;;25.80;55.30;;;;;;5016631;28;19925;-76
2022/07/03 21:08:57;;;;;;;;;;;26.00;55.40;;;;;;5020868;28;20375;-75
2022/07/03 21:11:40;;;;;;;;;;;26.10;55.10;;;;;;5016405;28;19928;-74
2022/07/03 21:14:08;;;;;;;;;;;26.20;54.80;;;;;;5037367;28;19907;-75
2022/07/03 21:16:35;;;;;;;;;;;26.30;54.40;;;;;;5023382;28;20154;-75
2022/07/03 21:19:02;;;;;;;;;;;26.40;54.00;;;;;;5006978;28;19968;-75
2022/07/03 21:21:28;;;;;;;;;;;26.40;53.60;;;;;;5017560;28;19980;-75
2022/07/03 21:23:55;;;;;;;;;;;26.50;53.50;;;;;;5028337;28;19921;-74
2022/07/03 21:26:20;;;;;;;;;;;26.50;52.90;;;;;;5051581;28;19928;-76
2022/07/03 21:28:47;;;;;;;;;;;26.50;53.10;;;;;;5023308;28;19959;-76
2022/07/03 21:31:13;;;;;;;;;;;26.50;53.20;;;;;;5040875;28;20283;-74
2022/07/03 21:33:39;;;;;;;;;;;26.50;53.60;;;;;;5039543;28;19929;-75
2022/07/03 21:36:05;;;;;;;;;;;26.50;54.10;;;;;;5032836;28;19972;-75
2022/07/03 21:38:31;;;;;;;;;;;26.30;53.70;;;;;;5032168;28;19925;-76
2022/07/03 21:40:56;;;;;;;;;;;26.30;53.00;;;;;;5033323;28;19935;-76
2022/07/03 21:43:23;;;;;;;;;;;26.30;52.60;;;;;;5032862;28;19925;-77
2022/07/03 21:45:49;;;;;;;;;;;26.30;52.80;;;;;;5032722;28;19925;-77
2022/07/03 21:48:15;;;;;;;;;;;26.20;52.80;;;;;;5033403;28;19927;-76
2022/07/03 21:50:41;;;;;;;;;;;26.20;53.00;;;;;;5030131;28;19925;-77
2022/07/03 21:53:07;;;;;;;;;;;26.10;52.90;;;;;;5034149;28;19921;-77
2022/07/03 21:55:33;;;;;;;;;;;26.10;53.00;;;;;;5031947;28;19979;-76
2022/07/03 21:57:59;;;;;;;;;;;26.10;52.70;;;;;;5033369;28;19974;-76
2022/07/03 22:00:25;;;;;;;;;;;26.00;52.80;;;;;;5033708;28;20364;-77
2022/07/03 22:02:50;;;;;;;;;;;26.00;52.70;;;;;;5029988;28;19925;-77
2022/07/03 22:05:19;;;;;;;;;;;25.90;52.60;;;;;;5033830;28;20420;-76
2022/07/03 22:07:45;;;;;;;;;;;25.90;52.50;;;;;;5020111;28;19921;-77
2022/07/03 22:10:11;;;;;;;;;;;25.90;52.20;;;;;;5018615;28;19924;-78
2022/07/03 22:12:43;;;;;;;;;;;25.80;52.60;;;;;;5005002;28;19928;-77
2022/07/03 22:15:10;;;;;;;;;;;25.80;52.50;;;;;;5016622;28;19925;-78
2022/07/03 22:17:37;;;;;;;;;;;25.70;52.20;;;;;;5030520;28;19932;-77
2022/07/03 22:20:04;;;;;;;;;;;25.70;52.30;;;;;;5030722;28;19980;-77
2022/07/03 22:22:30;;;;;;;;;;;25.60;52.20;;;;;;5019969;28;19921;-76
2022/07/03 22:24:56;;;;;;;;;;;25.60;52.40;;;;;;5018823;28;20358;-76
2022/07/03 22:27:21;;;;;;;;;;;25.60;52.40;;;;;;5017900;28;19921;-77
2022/07/03 22:29:47;;;;;;;;;;;25.50;52.30;;;;;;5018792;28;19995;-77
2022/07/03 22:32:15;;;;;;;;;;;25.50;52.60;;;;;;5019159;28;19925;-77
2022/07/03 22:34:41;;;;;;;;;;;25.50;52.70;;;;;;5028498;28;19921;-76
2022/07/03 22:37:07;;;;;;;;;;;25.40;52.50;;;;;;5017708;28;19917;-76
2022/07/03 22:39:33;;;;;;;;;;;25.40;52.60;;;;;;5018180;28;19967;-76
2022/07/03 22:41:59;;;;;;;;;;;25.30;52.80;;;;;;5018987;28;20019;-76
2022/07/03 22:44:25;;;;;;;;;;;25.30;53.70;;;;;;5018443;28;20016;-76
2022/07/03 22:46:51;;;;;;;;;;;25.30;53.00;;;;;;5017270;28;20411;-76
2022/07/03 22:49:17;;;;;;;;;;;25.30;52.90;;;;;;5018032;28;20386;-77
2022/07/03 22:51:43;;;;;;;;;;;25.30;53.10;;;;;;5024830;28;20266;-77
2022/07/03 22:54:09;;;;;;;;;;;25.20;52.80;;;;;;5021120;28;20571;-77
2022/07/03 22:56:35;;;;;;;;;;;25.20;52.50;;;;;;5021935;28;20245;-77
2022/07/03 22:59:01;;;;;;;;;;;25.10;52.10;;;;;;5028591;28;20116;-77
2022/07/03 23:01:28;;;;;;;;;;;25.10;51.90;;;;;;5023338;28;20023;-75
2022/07/03 23:03:54;;;;;;;;;;;25.10;51.70;;;;;;5020736;28;19964;-76
2022/07/03 23:06:19;;;;;;;;;;;25.10;51.90;;;;;;5021833;28;19960;-76
2022/07/03 23:08:45;;;;;;;;;;;25.00;52.00;;;;;;5019456;28;19922;-76
2022/07/03 23:11:11;;;;;;;;;;;25.00;52.10;;;;;;5036087;28;20127;-76
2022/07/03 23:13:37;;;;;;;;;;;25.00;52.70;;;;;;5009914;28;19917;-76
2022/07/03 23:16:03;;;;;;;;;;;24.90;53.40;;;;;;5035645;28;19933;-77
2022/07/03 23:18:29;;;;;;;;;;;24.90;54.80;;;;;;5036836;28;20859;-77
2022/07/03 23:20:55;;;;;;;;;;;24.90;56.10;;;;;;5020926;28;19921;-76
2022/07/03 23:23:21;;;;;;;;;;;24.80;56.50;;;;;;5020918;28;19921;-77
2022/07/03 23:25:47;;;;;;;;;;;24.80;55.60;;;;;;5018743;28;19921;-76
2022/07/03 23:28:13;;;;;;;;;;;24.80;54.70;;;;;;5022017;28;19914;-76
2022/07/03 23:30:38;;;;;;;;;;;24.80;53.90;;;;;;5020603;28;20387;-75
2022/07/03 23:33:05;;;;;;;;;;;24.70;53.70;;;;;;5021788;28;19921;-76
2022/07/03 23:35:31;;;;;;;;;;;24.70;54.20;;;;;;5018161;28;19936;-76
2022/07/03 23:37:57;;;;;;;;;;;24.70;54.20;;;;;;5022613;28;19952;-76
2022/07/03 23:40:22;;;;;;;;;;;24.60;53.90;;;;;;5020806;28;19928;-76
2022/07/03 23:42:48;;;;;;;;;;;24.60;56.10;;;;;;5023298;28;19921;-77
2022/07/03 23:45:14;;;;;;;;;;;24.60;56.00;;;;;;5020813;28;20407;-76
2022/07/03 23:47:40;;;;;;;;;;;24.60;56.60;;;;;;5022887;28;19921;-76
2022/07/03 23:52:51;;;;;;;;;;;24.50;58.00;;;;;;5021698;28;20350;-77
2022/07/03 23:55:18;;;;;;;;;;;24.40;57.60;;;;;;5031875;28;19925;-77
2022/07/03 23:57:44;;;;;;;;;;;24.40;56.10;;;;;;4984155;28;20354;-77
